sensor_id;sensor_type;location;lat;lon;timestamp;P1;durP1;ratioP1;P2;durP2;ratioP2
39454;SDS011;25155;41.890;23.446;2023-04-24T00:01:53;8.88;;;6.50;;
39454;SDS011;25155;41.890;23.446;2023-04-24T00:04:20;9.55;;;7.00;;
39454;SDS011;25155;41.890;23.446;2023-04-24T00:06:51;8.10;;;5.97;;
39454;SDS011;25155;41.890;23.446;2023-04-24T00:09:22;5.75;;;4.80;;
39454;SDS011;25155;41.890;23.446;2023-04-24T00:11:51;6.43;;;4.07;;
39454;SDS011;25155;41.890;23.446;2023-04-24T00:14:19;6.10;;;5.13;;
39454;SDS011;25155;41.890;23.446;2023-04-24T00:16:46;6.40;;;5.13;;
39454;SDS011;25155;41.890;23.446;2023-04-24T00:19:13;7.53;;;4.93;;
39454;SDS011;25155;41.890;23.446;2023-04-24T00:21:41;5.97;;;4.47;;
39454;SDS011;25155;41.890;23.446;2023-04-24T00:24:08;6.13;;;4.47;;
39454;SDS011;25155;41.890;23.446;2023-04-24T00:26:36;5.95;;;4.47;;
39454;SDS011;25155;41.890;23.446;2023-04-24T00:29:05;6.47;;;4.63;;
39454;SDS011;25155;41.890;23.446;2023-04-24T00:31:32;6.38;;;4.88;;
39454;SDS011;25155;41.890;23.446;2023-04-24T00:34:00;7.30;;;4.93;;
39454;SDS011;25155;41.890;23.446;2023-04-24T00:36:27;7.18;;;5.13;;
39454;SDS011;25155;41.890;23.446;2023-04-24T00:38:57;9.18;;;5.82;;
39454;SDS011;25155;41.890;23.446;2023-04-24T00:41:25;8.68;;;5.43;;
39454;SDS011;25155;41.890;23.446;2023-04-24T00:43:52;7.70;;;5.47;;
39454;SDS011;25155;41.890;23.446;2023-04-24T00:46:21;7.82;;;5.82;;
39454;SDS011;25155;41.890;23.446;2023-04-24T00:48:48;11.70;;;7.80;;
39454;SDS011;25155;41.890;23.446;2023-04-24T00:51:17;10.10;;;6.40;;
39454;SDS011;25155;41.890;23.446;2023-04-24T00:53:44;8.88;;;6.65;;
39454;SDS011;25155;41.890;23.446;2023-04-24T00:56:11;6.65;;;5.00;;
39454;SDS011;25155;41.890;23.446;2023-04-24T00:58:38;7.43;;;5.45;;
39454;SDS011;25155;41.890;23.446;2023-04-24T01:01:07;7.65;;;5.25;;
39454;SDS011;25155;41.890;23.446;2023-04-24T01:03:36;7.97;;;5.45;;
39454;SDS011;25155;41.890;23.446;2023-04-24T01:06:04;8.27;;;6.20;;
39454;SDS011;25155;41.890;23.446;2023-04-24T01:08:32;8.70;;;6.80;;
39454;SDS011;25155;41.890;23.446;2023-04-24T01:11:01;8.38;;;6.15;;
39454;SDS011;25155;41.890;23.446;2023-04-24T01:13:30;8.23;;;7.18;;
39454;SDS011;25155;41.890;23.446;2023-04-24T01:15:59;8.15;;;6.28;;
39454;SDS011;25155;41.890;23.446;2023-04-24T01:18:27;8.43;;;6.40;;
39454;SDS011;25155;41.890;23.446;2023-04-24T01:20:56;7.93;;;6.78;;
39454;SDS011;25155;41.890;23.446;2023-04-24T01:23:27;8.10;;;6.57;;
39454;SDS011;25155;41.890;23.446;2023-04-24T01:25:54;8.00;;;5.72;;
39454;SDS011;25155;41.890;23.446;2023-04-24T01:28:21;7.80;;;6.05;;
39454;SDS011;25155;41.890;23.446;2023-04-24T01:30:49;7.32;;;5.63;;
39454;SDS011;25155;41.890;23.446;2023-04-24T01:33:16;6.85;;;5.72;;
39454;SDS011;25155;41.890;23.446;2023-04-24T01:35:44;7.88;;;5.30;;
39454;SDS011;25155;41.890;23.446;2023-04-24T01:38:12;10.00;;;6.63;;
39454;SDS011;25155;41.890;23.446;2023-04-24T01:40:40;7.32;;;6.15;;
39454;SDS011;25155;41.890;23.446;2023-04-24T01:43:08;6.53;;;5.40;;
39454;SDS011;25155;41.890;23.446;2023-04-24T01:45:35;6.60;;;4.93;;
39454;SDS011;25155;41.890;23.446;2023-04-24T01:48:03;8.10;;;5.97;;
39454;SDS011;25155;41.890;23.446;2023-04-24T01:50:30;7.50;;;5.80;;
39454;SDS011;25155;41.890;23.446;2023-04-24T01:52:57;10.52;;;6.72;;
39454;SDS011;25155;41.890;23.446;2023-04-24T01:55:25;7.88;;;6.55;;
39454;SDS011;25155;41.890;23.446;2023-04-24T01:57:54;10.02;;;7.32;;
39454;SDS011;25155;41.890;23.446;2023-04-24T02:00:22;12.05;;;7.35;;
39454;SDS011;25155;41.890;23.446;2023-04-24T02:02:50;9.80;;;7.95;;
39454;SDS011;25155;41.890;23.446;2023-04-24T02:05:18;8.30;;;6.85;;
39454;SDS011;25155;41.890;23.446;2023-04-24T02:07:45;8.00;;;6.75;;
39454;SDS011;25155;41.890;23.446;2023-04-24T02:10:13;8.65;;;6.22;;
39454;SDS011;25155;41.890;23.446;2023-04-24T02:12:40;6.45;;;5.05;;
39454;SDS011;25155;41.890;23.446;2023-04-24T02:15:09;6.90;;;5.10;;
39454;SDS011;25155;41.890;23.446;2023-04-24T02:17:37;5.65;;;4.53;;
39454;SDS011;25155;41.890;23.446;2023-04-24T02:20:05;6.10;;;5.05;;
39454;SDS011;25155;41.890;23.446;2023-04-24T02:22:33;6.20;;;5.15;;
39454;SDS011;25155;41.890;23.446;2023-04-24T02:25:00;6.55;;;5.07;;
39454;SDS011;25155;41.890;23.446;2023-04-24T02:27:27;6.57;;;5.00;;
39454;SDS011;25155;41.890;23.446;2023-04-24T02:29:55;6.80;;;5.18;;
39454;SDS011;25155;41.890;23.446;2023-04-24T02:32:24;11.13;;;9.38;;
39454;SDS011;25155;41.890;23.446;2023-04-24T02:34:51;9.05;;;7.65;;
39454;SDS011;25155;41.890;23.446;2023-04-24T02:37:18;7.07;;;5.90;;
39454;SDS011;25155;41.890;23.446;2023-04-24T02:39:46;7.40;;;6.07;;
39454;SDS011;25155;41.890;23.446;2023-04-24T02:42:13;8.73;;;6.18;;
39454;SDS011;25155;41.890;23.446;2023-04-24T02:44:40;8.30;;;6.38;;
39454;SDS011;25155;41.890;23.446;2023-04-24T02:47:08;9.60;;;7.35;;
39454;SDS011;25155;41.890;23.446;2023-04-24T02:49:36;9.27;;;7.25;;
39454;SDS011;25155;41.890;23.446;2023-04-24T02:52:03;8.05;;;6.15;;
39454;SDS011;25155;41.890;23.446;2023-04-24T02:54:30;13.60;;;9.52;;
39454;SDS011;25155;41.890;23.446;2023-04-24T02:56:57;12.38;;;9.73;;
39454;SDS011;25155;41.890;23.446;2023-04-24T02:59:26;10.13;;;8.50;;
39454;SDS011;25155;41.890;23.446;2023-04-24T03:01:54;10.23;;;7.35;;
39454;SDS011;25155;41.890;23.446;2023-04-24T03:04:22;8.43;;;6.97;;
39454;SDS011;25155;41.890;23.446;2023-04-24T03:06:50;9.50;;;7.07;;
39454;SDS011;25155;41.890;23.446;2023-04-24T03:09:20;9.20;;;7.40;;
39454;SDS011;25155;41.890;23.446;2023-04-24T03:11:47;13.82;;;11.45;;
39454;SDS011;25155;41.890;23.446;2023-04-24T03:14:15;17.00;;;13.95;;
39454;SDS011;25155;41.890;23.446;2023-04-24T03:16:42;13.85;;;11.80;;
39454;SDS011;25155;41.890;23.446;2023-04-24T03:19:10;14.77;;;12.38;;
39454;SDS011;25155;41.890;23.446;2023-04-24T03:21:38;13.20;;;10.05;;
39454;SDS011;25155;41.890;23.446;2023-04-24T03:24:08;13.70;;;11.88;;
39454;SDS011;25155;41.890;23.446;2023-04-24T03:26:35;14.20;;;12.38;;
39454;SDS011;25155;41.890;23.446;2023-04-24T03:29:02;15.02;;;11.80;;
39454;SDS011;25155;41.890;23.446;2023-04-24T03:31:29;13.68;;;10.88;;
39454;SDS011;25155;41.890;23.446;2023-04-24T03:33:56;18.50;;;13.93;;
39454;SDS011;25155;41.890;23.446;2023-04-24T03:36:24;14.45;;;8.90;;
39454;SDS011;25155;41.890;23.446;2023-04-24T03:38:51;9.32;;;7.60;;
39454;SDS011;25155;41.890;23.446;2023-04-24T03:41:20;9.60;;;7.90;;
39454;SDS011;25155;41.890;23.446;2023-04-24T03:43:48;7.32;;;5.75;;
39454;SDS011;25155;41.890;23.446;2023-04-24T03:46:15;6.88;;;5.32;;
39454;SDS011;25155;41.890;23.446;2023-04-24T03:48:42;8.13;;;6.50;;
39454;SDS011;25155;41.890;23.446;2023-04-24T03:51:09;9.15;;;7.38;;
39454;SDS011;25155;41.890;23.446;2023-04-24T03:53:36;8.15;;;6.60;;
39454;SDS011;25155;41.890;23.446;2023-04-24T03:56:03;11.18;;;9.20;;
39454;SDS011;25155;41.890;23.446;2023-04-24T03:58:32;14.10;;;10.80;;
39454;SDS011;25155;41.890;23.446;2023-04-24T04:00:59;10.88;;;8.23;;
39454;SDS011;25155;41.890;23.446;2023-04-24T04:03:26;18.05;;;12.88;;
39454;SDS011;25155;41.890;23.446;2023-04-24T04:05:53;17.27;;;14.52;;
39454;SDS011;25155;41.890;23.446;2023-04-24T04:08:20;20.00;;;15.88;;
39454;SDS011;25155;41.890;23.446;2023-04-24T04:10:48;18.40;;;15.57;;
39454;SDS011;25155;41.890;23.446;2023-04-24T04:13:15;16.52;;;13.27;;
39454;SDS011;25155;41.890;23.446;2023-04-24T04:15:43;12.68;;;10.38;;
39454;SDS011;25155;41.890;23.446;2023-04-24T04:18:10;10.35;;;8.23;;
39454;SDS011;25155;41.890;23.446;2023-04-24T04:20:37;8.68;;;7.55;;
39454;SDS011;25155;41.890;23.446;2023-04-24T04:23:05;10.82;;;7.95;;
39454;SDS011;25155;41.890;23.446;2023-04-24T04:25:32;7.50;;;6.30;;
39454;SDS011;25155;41.890;23.446;2023-04-24T04:27:59;7.18;;;5.65;;
39454;SDS011;25155;41.890;23.446;2023-04-24T04:30:27;6.68;;;5.38;;
39454;SDS011;25155;41.890;23.446;2023-04-24T04:32:59;6.15;;;4.78;;
39454;SDS011;25155;41.890;23.446;2023-04-24T04:35:26;6.43;;;4.60;;
39454;SDS011;25155;41.890;23.446;2023-04-24T04:37:54;5.45;;;4.18;;
39454;SDS011;25155;41.890;23.446;2023-04-24T04:40:24;10.65;;;4.72;;
39454;SDS011;25155;41.890;23.446;2023-04-24T04:42:52;7.10;;;5.15;;
39454;SDS011;25155;41.890;23.446;2023-04-24T04:45:19;5.45;;;4.20;;
39454;SDS011;25155;41.890;23.446;2023-04-24T04:47:46;6.95;;;5.50;;
39454;SDS011;25155;41.890;23.446;2023-04-24T04:50:16;7.55;;;5.90;;
39454;SDS011;25155;41.890;23.446;2023-04-24T04:52:44;10.75;;;8.68;;
39454;SDS011;25155;41.890;23.446;2023-04-24T04:55:12;12.30;;;9.82;;
39454;SDS011;25155;41.890;23.446;2023-04-24T04:57:40;13.77;;;10.85;;
39454;SDS011;25155;41.890;23.446;2023-04-24T05:00:07;14.73;;;11.88;;
39454;SDS011;25155;41.890;23.446;2023-04-24T05:02:37;14.23;;;11.10;;
39454;SDS011;25155;41.890;23.446;2023-04-24T05:05:04;9.82;;;7.93;;
39454;SDS011;25155;41.890;23.446;2023-04-24T05:07:34;13.60;;;10.50;;
39454;SDS011;25155;41.890;23.446;2023-04-24T05:10:01;14.52;;;11.73;;
39454;SDS011;25155;41.890;23.446;2023-04-24T05:12:29;14.85;;;11.27;;
39454;SDS011;25155;41.890;23.446;2023-04-24T05:14:56;17.45;;;10.82;;
39454;SDS011;25155;41.890;23.446;2023-04-24T05:17:24;13.02;;;11.15;;
39454;SDS011;25155;41.890;23.446;2023-04-24T05:19:51;11.15;;;9.40;;
39454;SDS011;25155;41.890;23.446;2023-04-24T05:22:18;10.52;;;9.05;;
39454;SDS011;25155;41.890;23.446;2023-04-24T05:24:51;13.40;;;10.45;;
39454;SDS011;25155;41.890;23.446;2023-04-24T05:27:20;12.60;;;10.95;;
39454;SDS011;25155;41.890;23.446;2023-04-24T05:29:47;12.38;;;10.35;;
39454;SDS011;25155;41.890;23.446;2023-04-24T05:32:14;15.07;;;12.65;;
39454;SDS011;25155;41.890;23.446;2023-04-24T05:34:41;14.40;;;11.02;;
39454;SDS011;25155;41.890;23.446;2023-04-24T05:37:09;12.20;;;10.25;;
39454;SDS011;25155;41.890;23.446;2023-04-24T05:39:36;10.77;;;9.30;;
39454;SDS011;25155;41.890;23.446;2023-04-24T05:42:05;12.93;;;11.02;;
39454;SDS011;25155;41.890;23.446;2023-04-24T05:44:33;13.32;;;10.43;;
39454;SDS011;25155;41.890;23.446;2023-04-24T05:47:00;16.33;;;13.50;;
39454;SDS011;25155;41.890;23.446;2023-04-24T05:49:27;15.77;;;13.68;;
39454;SDS011;25155;41.890;23.446;2023-04-24T05:51:54;14.80;;;12.57;;
39454;SDS011;25155;41.890;23.446;2023-04-24T05:54:21;15.70;;;13.55;;
39454;SDS011;25155;41.890;23.446;2023-04-24T05:56:48;15.35;;;13.15;;
39454;SDS011;25155;41.890;23.446;2023-04-24T05:59:17;24.98;;;19.10;;
39454;SDS011;25155;41.890;23.446;2023-04-24T06:01:44;28.13;;;22.73;;
39454;SDS011;25155;41.890;23.446;2023-04-24T06:04:12;51.00;;;39.58;;
39454;SDS011;25155;41.890;23.446;2023-04-24T06:06:39;61.97;;;45.45;;
39454;SDS011;25155;41.890;23.446;2023-04-24T06:09:07;56.60;;;44.25;;
39454;SDS011;25155;41.890;23.446;2023-04-24T06:11:34;48.72;;;36.22;;
39454;SDS011;25155;41.890;23.446;2023-04-24T06:14:01;38.15;;;30.13;;
39454;SDS011;25155;41.890;23.446;2023-04-24T06:16:29;33.55;;;26.45;;
39454;SDS011;25155;41.890;23.446;2023-04-24T06:18:57;23.52;;;19.45;;
39454;SDS011;25155;41.890;23.446;2023-04-24T06:21:24;26.17;;;21.67;;
39454;SDS011;25155;41.890;23.446;2023-04-24T06:23:53;25.02;;;20.92;;
39454;SDS011;25155;41.890;23.446;2023-04-24T06:26:21;24.08;;;19.40;;
39454;SDS011;25155;41.890;23.446;2023-04-24T06:28:50;21.30;;;17.67;;
39454;SDS011;25155;41.890;23.446;2023-04-24T06:31:18;20.85;;;18.38;;
39454;SDS011;25155;41.890;23.446;2023-04-24T06:33:47;27.52;;;20.23;;
39454;SDS011;25155;41.890;23.446;2023-04-24T06:36:15;21.38;;;18.00;;
39454;SDS011;25155;41.890;23.446;2023-04-24T06:38:43;23.25;;;19.33;;
39454;SDS011;25155;41.890;23.446;2023-04-24T06:41:10;24.05;;;19.60;;
39454;SDS011;25155;41.890;23.446;2023-04-24T06:43:38;22.85;;;18.27;;
39454;SDS011;25155;41.890;23.446;2023-04-24T06:46:05;20.98;;;16.73;;
39454;SDS011;25155;41.890;23.446;2023-04-24T06:48:32;19.40;;;15.98;;
39454;SDS011;25155;41.890;23.446;2023-04-24T06:51:01;17.92;;;14.30;;
39454;SDS011;25155;41.890;23.446;2023-04-24T06:53:29;16.63;;;13.50;;
39454;SDS011;25155;41.890;23.446;2023-04-24T06:55:56;18.00;;;15.38;;
39454;SDS011;25155;41.890;23.446;2023-04-24T06:58:24;14.55;;;12.60;;
39454;SDS011;25155;41.890;23.446;2023-04-24T07:00:51;18.05;;;14.65;;
39454;SDS011;25155;41.890;23.446;2023-04-24T07:03:18;19.55;;;16.92;;
39454;SDS011;25155;41.890;23.446;2023-04-24T07:05:45;16.98;;;14.48;;
39454;SDS011;25155;41.890;23.446;2023-04-24T07:08:14;15.82;;;13.80;;
39454;SDS011;25155;41.890;23.446;2023-04-24T07:10:42;20.85;;;15.85;;
39454;SDS011;25155;41.890;23.446;2023-04-24T07:13:10;14.65;;;11.90;;
39454;SDS011;25155;41.890;23.446;2023-04-24T07:15:37;14.57;;;12.88;;
39454;SDS011;25155;41.890;23.446;2023-04-24T07:18:06;16.45;;;14.40;;
39454;SDS011;25155;41.890;23.446;2023-04-24T07:20:33;14.20;;;12.68;;
39454;SDS011;25155;41.890;23.446;2023-04-24T07:23:01;11.73;;;9.60;;
39454;SDS011;25155;41.890;23.446;2023-04-24T07:25:30;13.05;;;10.18;;
39454;SDS011;25155;41.890;23.446;2023-04-24T07:27:57;10.00;;;6.70;;
39454;SDS011;25155;41.890;23.446;2023-04-24T07:30:24;7.30;;;5.70;;
39454;SDS011;25155;41.890;23.446;2023-04-24T07:32:54;9.27;;;7.57;;
39454;SDS011;25155;41.890;23.446;2023-04-24T07:35:21;10.27;;;7.88;;
39454;SDS011;25155;41.890;23.446;2023-04-24T07:37:48;10.85;;;8.02;;
39454;SDS011;25155;41.890;23.446;2023-04-24T07:40:15;8.20;;;6.80;;
39454;SDS011;25155;41.890;23.446;2023-04-24T07:42:44;10.23;;;7.38;;
39454;SDS011;25155;41.890;23.446;2023-04-24T07:45:13;9.57;;;7.97;;
39454;SDS011;25155;41.890;23.446;2023-04-24T07:47:40;10.63;;;7.25;;
39454;SDS011;25155;41.890;23.446;2023-04-24T07:50:09;9.10;;;7.13;;
39454;SDS011;25155;41.890;23.446;2023-04-24T07:52:36;8.25;;;6.90;;
39454;SDS011;25155;41.890;23.446;2023-04-24T07:55:04;10.40;;;8.15;;
39454;SDS011;25155;41.890;23.446;2023-04-24T07:57:32;8.98;;;7.55;;
39454;SDS011;25155;41.890;23.446;2023-04-24T08:00:00;11.02;;;8.88;;
39454;SDS011;25155;41.890;23.446;2023-04-24T08:02:27;9.35;;;7.75;;
39454;SDS011;25155;41.890;23.446;2023-04-24T08:04:55;10.48;;;8.30;;
39454;SDS011;25155;41.890;23.446;2023-04-24T08:07:22;8.88;;;7.18;;
39454;SDS011;25155;41.890;23.446;2023-04-24T08:09:50;9.35;;;7.70;;
39454;SDS011;25155;41.890;23.446;2023-04-24T08:12:17;8.50;;;6.70;;
39454;SDS011;25155;41.890;23.446;2023-04-24T08:14:44;9.20;;;6.35;;
39454;SDS011;25155;41.890;23.446;2023-04-24T08:17:13;8.25;;;6.70;;
39454;SDS011;25155;41.890;23.446;2023-04-24T08:19:40;11.48;;;7.32;;
39454;SDS011;25155;41.890;23.446;2023-04-24T08:22:12;10.32;;;6.70;;
39454;SDS011;25155;41.890;23.446;2023-04-24T08:24:39;10.38;;;7.50;;
39454;SDS011;25155;41.890;23.446;2023-04-24T08:27:07;11.90;;;7.75;;
39454;SDS011;25155;41.890;23.446;2023-04-24T08:29:35;9.15;;;7.57;;
39454;SDS011;25155;41.890;23.446;2023-04-24T08:32:02;11.02;;;7.88;;
39454;SDS011;25155;41.890;23.446;2023-04-24T08:34:31;7.75;;;6.78;;
39454;SDS011;25155;41.890;23.446;2023-04-24T08:36:58;8.90;;;6.53;;
39454;SDS011;25155;41.890;23.446;2023-04-24T08:39:25;7.53;;;6.40;;
39454;SDS011;25155;41.890;23.446;2023-04-24T08:41:54;8.23;;;6.43;;
39454;SDS011;25155;41.890;23.446;2023-04-24T08:44:22;6.90;;;6.00;;
39454;SDS011;25155;41.890;23.446;2023-04-24T08:46:49;11.20;;;6.70;;
39454;SDS011;25155;41.890;23.446;2023-04-24T08:49:17;7.35;;;5.95;;
39454;SDS011;25155;41.890;23.446;2023-04-24T08:51:47;7.47;;;6.68;;
39454;SDS011;25155;41.890;23.446;2023-04-24T08:54:16;8.85;;;5.80;;
39454;SDS011;25155;41.890;23.446;2023-04-24T08:56:44;11.15;;;7.13;;
39454;SDS011;25155;41.890;23.446;2023-04-24T08:59:14;8.63;;;6.35;;
39454;SDS011;25155;41.890;23.446;2023-04-24T09:01:43;7.05;;;6.05;;
39454;SDS011;25155;41.890;23.446;2023-04-24T09:04:14;7.32;;;5.50;;
39454;SDS011;25155;41.890;23.446;2023-04-24T09:06:43;7.57;;;5.63;;
39454;SDS011;25155;41.890;23.446;2023-04-24T09:09:12;6.72;;;5.60;;
39454;SDS011;25155;41.890;23.446;2023-04-24T09:11:39;9.18;;;6.45;;
39454;SDS011;25155;41.890;23.446;2023-04-24T09:14:07;8.68;;;6.75;;
39454;SDS011;25155;41.890;23.446;2023-04-24T09:16:36;9.57;;;6.50;;
39454;SDS011;25155;41.890;23.446;2023-04-24T09:19:03;8.70;;;6.38;;
39454;SDS011;25155;41.890;23.446;2023-04-24T09:21:31;7.10;;;5.80;;
39454;SDS011;25155;41.890;23.446;2023-04-24T09:24:00;6.07;;;5.15;;
39454;SDS011;25155;41.890;23.446;2023-04-24T09:26:30;6.50;;;5.38;;
39454;SDS011;25155;41.890;23.446;2023-04-24T09:28:59;7.80;;;5.88;;
39454;SDS011;25155;41.890;23.446;2023-04-24T09:31:26;7.20;;;5.53;;
39454;SDS011;25155;41.890;23.446;2023-04-24T09:33:55;7.20;;;5.55;;
39454;SDS011;25155;41.890;23.446;2023-04-24T09:36:27;8.18;;;5.90;;
39454;SDS011;25155;41.890;23.446;2023-04-24T09:38:57;6.80;;;5.40;;
39454;SDS011;25155;41.890;23.446;2023-04-24T09:41:25;6.50;;;5.05;;
39454;SDS011;25155;41.890;23.446;2023-04-24T09:43:55;7.80;;;5.85;;
39454;SDS011;25155;41.890;23.446;2023-04-24T09:46:29;6.60;;;5.10;;
39454;SDS011;25155;41.890;23.446;2023-04-24T09:49:02;7.07;;;5.78;;
39454;SDS011;25155;41.890;23.446;2023-04-24T09:51:36;8.75;;;5.35;;
39454;SDS011;25155;41.890;23.446;2023-04-24T09:54:11;6.47;;;4.75;;
39454;SDS011;25155;41.890;23.446;2023-04-24T09:56:42;5.70;;;4.57;;
39454;SDS011;25155;41.890;23.446;2023-04-24T09:59:12;6.07;;;4.63;;
39454;SDS011;25155;41.890;23.446;2023-04-24T10:01:39;6.32;;;4.78;;
39454;SDS011;25155;41.890;23.446;2023-04-24T10:04:16;7.75;;;4.80;;
39454;SDS011;25155;41.890;23.446;2023-04-24T10:06:45;9.65;;;4.88;;
39454;SDS011;25155;41.890;23.446;2023-04-24T10:09:14;6.07;;;4.57;;
39454;SDS011;25155;41.890;23.446;2023-04-24T10:11:42;6.10;;;4.32;;
39454;SDS011;25155;41.890;23.446;2023-04-24T10:14:13;5.97;;;4.28;;
39454;SDS011;25155;41.890;23.446;2023-04-24T10:16:42;5.80;;;4.53;;
39454;SDS011;25155;41.890;23.446;2023-04-24T10:19:12;6.05;;;4.60;;
39454;SDS011;25155;41.890;23.446;2023-04-24T10:21:40;7.18;;;4.05;;
39454;SDS011;25155;41.890;23.446;2023-04-24T10:24:12;5.20;;;3.90;;
39454;SDS011;25155;41.890;23.446;2023-04-24T10:26:40;8.55;;;4.78;;
39454;SDS011;25155;41.890;23.446;2023-04-24T10:29:08;5.35;;;3.63;;
39454;SDS011;25155;41.890;23.446;2023-04-24T10:31:39;5.15;;;3.47;;
39454;SDS011;25155;41.890;23.446;2023-04-24T10:34:06;5.32;;;3.70;;
39454;SDS011;25155;41.890;23.446;2023-04-24T10:36:36;6.13;;;4.30;;
39454;SDS011;25155;41.890;23.446;2023-04-24T10:39:08;5.45;;;4.00;;
39454;SDS011;25155;41.890;23.446;2023-04-24T10:44:05;8.82;;;4.07;;
39454;SDS011;25155;41.890;23.446;2023-04-24T10:46:33;5.50;;;3.35;;
39454;SDS011;25155;41.890;23.446;2023-04-24T10:49:01;4.72;;;3.38;;
39454;SDS011;25155;41.890;23.446;2023-04-24T10:51:47;5.68;;;3.50;;
39454;SDS011;25155;41.890;23.446;2023-04-24T10:54:25;5.75;;;4.18;;
39454;SDS011;25155;41.890;23.446;2023-04-24T10:56:56;5.63;;;3.67;;
39454;SDS011;25155;41.890;23.446;2023-04-24T11:00:09;5.00;;;3.95;;
39454;SDS011;25155;41.890;23.446;2023-04-24T11:02:40;6.72;;;4.00;;
39454;SDS011;25155;41.890;23.446;2023-04-24T11:05:16;5.88;;;4.00;;
39454;SDS011;25155;41.890;23.446;2023-04-24T11:10:39;4.60;;;3.20;;
39454;SDS011;25155;41.890;23.446;2023-04-24T11:13:07;5.47;;;3.30;;
39454;SDS011;25155;41.890;23.446;2023-04-24T11:15:35;5.20;;;3.58;;
39454;SDS011;25155;41.890;23.446;2023-04-24T11:18:02;5.47;;;3.40;;
39454;SDS011;25155;41.890;23.446;2023-04-24T11:20:31;5.65;;;3.50;;
39454;SDS011;25155;41.890;23.446;2023-04-24T11:23:00;5.53;;;3.30;;
39454;SDS011;25155;41.890;23.446;2023-04-24T11:25:31;5.97;;;3.75;;
39454;SDS011;25155;41.890;23.446;2023-04-24T11:28:05;4.95;;;3.15;;
39454;SDS011;25155;41.890;23.446;2023-04-24T11:30:32;4.60;;;3.28;;
39454;SDS011;25155;41.890;23.446;2023-04-24T11:33:03;6.47;;;3.47;;
39454;SDS011;25155;41.890;23.446;2023-04-24T11:35:36;5.53;;;3.55;;
39454;SDS011;25155;41.890;23.446;2023-04-24T11:38:06;5.43;;;3.65;;
39454;SDS011;25155;41.890;23.446;2023-04-24T11:40:34;5.18;;;3.55;;
39454;SDS011;25155;41.890;23.446;2023-04-24T11:43:01;4.88;;;3.60;;
39454;SDS011;25155;41.890;23.446;2023-04-24T11:45:31;5.40;;;3.50;;
39454;SDS011;25155;41.890;23.446;2023-04-24T11:47:58;5.47;;;3.67;;
39454;SDS011;25155;41.890;23.446;2023-04-24T11:50:26;4.90;;;3.40;;
39454;SDS011;25155;41.890;23.446;2023-04-24T11:52:56;5.00;;;3.13;;
39454;SDS011;25155;41.890;23.446;2023-04-24T11:55:24;6.07;;;3.50;;
39454;SDS011;25155;41.890;23.446;2023-04-24T11:57:53;5.45;;;3.35;;
39454;SDS011;25155;41.890;23.446;2023-04-24T12:00:23;4.85;;;3.30;;
39454;SDS011;25155;41.890;23.446;2023-04-24T12:02:52;5.38;;;3.60;;
39454;SDS011;25155;41.890;23.446;2023-04-24T12:05:31;5.28;;;3.30;;
39454;SDS011;25155;41.890;23.446;2023-04-24T12:07:59;4.97;;;3.10;;
39454;SDS011;25155;41.890;23.446;2023-04-24T12:10:27;3.95;;;2.80;;
39454;SDS011;25155;41.890;23.446;2023-04-24T12:12:56;3.80;;;2.47;;
39454;SDS011;25155;41.890;23.446;2023-04-24T12:15:24;4.00;;;2.70;;
39454;SDS011;25155;41.890;23.446;2023-04-24T12:17:52;4.32;;;2.90;;
39454;SDS011;25155;41.890;23.446;2023-04-24T12:20:23;5.55;;;3.30;;
39454;SDS011;25155;41.890;23.446;2023-04-24T12:22:52;4.28;;;2.80;;
39454;SDS011;25155;41.890;23.446;2023-04-24T12:25:25;5.18;;;3.10;;
39454;SDS011;25155;41.890;23.446;2023-04-24T12:27:54;4.63;;;3.08;;
39454;SDS011;25155;41.890;23.446;2023-04-24T12:30:26;3.65;;;2.70;;
39454;SDS011;25155;41.890;23.446;2023-04-24T12:32:56;5.15;;;3.08;;
39454;SDS011;25155;41.890;23.446;2023-04-24T12:35:27;4.55;;;2.90;;
39454;SDS011;25155;41.890;23.446;2023-04-24T12:38:05;4.45;;;2.58;;
39454;SDS011;25155;41.890;23.446;2023-04-24T12:40:34;4.70;;;2.85;;
39454;SDS011;25155;41.890;23.446;2023-04-24T12:43:15;4.45;;;2.60;;
39454;SDS011;25155;41.890;23.446;2023-04-24T12:49:33;3.80;;;2.40;;
39454;SDS011;25155;41.890;23.446;2023-04-24T12:52:01;4.20;;;2.50;;
39454;SDS011;25155;41.890;23.446;2023-04-24T12:54:32;7.43;;;2.80;;
39454;SDS011;25155;41.890;23.446;2023-04-24T12:57:03;8.23;;;2.90;;
39454;SDS011;25155;41.890;23.446;2023-04-24T12:59:32;3.95;;;2.40;;
39454;SDS011;25155;41.890;23.446;2023-04-24T13:01:59;4.65;;;2.22;;
39454;SDS011;25155;41.890;23.446;2023-04-24T13:04:26;3.90;;;2.65;;
39454;SDS011;25155;41.890;23.446;2023-04-24T13:06:55;4.55;;;2.55;;
39454;SDS011;25155;41.890;23.446;2023-04-24T13:09:22;4.53;;;2.70;;
39454;SDS011;25155;41.890;23.446;2023-04-24T13:11:49;4.43;;;3.03;;
39454;SDS011;25155;41.890;23.446;2023-04-24T13:14:17;4.82;;;2.80;;
39454;SDS011;25155;41.890;23.446;2023-04-24T13:16:45;5.63;;;3.42;;
39454;SDS011;25155;41.890;23.446;2023-04-24T13:19:12;6.07;;;3.10;;
39454;SDS011;25155;41.890;23.446;2023-04-24T13:21:40;4.63;;;2.90;;
39454;SDS011;25155;41.890;23.446;2023-04-24T13:24:09;4.80;;;2.70;;
39454;SDS011;25155;41.890;23.446;2023-04-24T13:26:36;4.65;;;2.70;;
39454;SDS011;25155;41.890;23.446;2023-04-24T13:29:04;3.95;;;2.58;;
39454;SDS011;25155;41.890;23.446;2023-04-24T13:31:31;4.20;;;2.55;;
39454;SDS011;25155;41.890;23.446;2023-04-24T13:33:58;4.53;;;2.95;;
39454;SDS011;25155;41.890;23.446;2023-04-24T13:36:26;3.83;;;2.65;;
39454;SDS011;25155;41.890;23.446;2023-04-24T13:38:53;3.67;;;2.45;;
39454;SDS011;25155;41.890;23.446;2023-04-24T13:41:22;4.30;;;2.65;;
39454;SDS011;25155;41.890;23.446;2023-04-24T13:43:50;3.25;;;2.40;;
39454;SDS011;25155;41.890;23.446;2023-04-24T13:46:17;5.78;;;3.00;;
39454;SDS011;25155;41.890;23.446;2023-04-24T13:48:44;4.85;;;2.70;;
39454;SDS011;25155;41.890;23.446;2023-04-24T13:51:11;5.80;;;2.60;;
39454;SDS011;25155;41.890;23.446;2023-04-24T13:53:38;5.53;;;3.00;;
39454;SDS011;25155;41.890;23.446;2023-04-24T13:56:05;5.85;;;3.10;;
39454;SDS011;25155;41.890;23.446;2023-04-24T13:58:35;5.43;;;2.75;;
39454;SDS011;25155;41.890;23.446;2023-04-24T14:01:03;4.05;;;2.95;;
39454;SDS011;25155;41.890;23.446;2023-04-24T14:03:30;4.15;;;2.80;;
39454;SDS011;25155;41.890;23.446;2023-04-24T14:05:57;4.85;;;2.70;;
39454;SDS011;25155;41.890;23.446;2023-04-24T14:08:24;8.48;;;2.72;;
39454;SDS011;25155;41.890;23.446;2023-04-24T14:10:51;4.75;;;2.78;;
39454;SDS011;25155;41.890;23.446;2023-04-24T14:13:19;4.93;;;3.08;;
39454;SDS011;25155;41.890;23.446;2023-04-24T14:15:48;6.10;;;3.10;;
39454;SDS011;25155;41.890;23.446;2023-04-24T14:18:15;6.78;;;2.92;;
39454;SDS011;25155;41.890;23.446;2023-04-24T14:20:42;4.80;;;2.70;;
39454;SDS011;25155;41.890;23.446;2023-04-24T14:23:09;4.30;;;2.78;;
39454;SDS011;25155;41.890;23.446;2023-04-24T14:25:36;8.32;;;3.17;;
39454;SDS011;25155;41.890;23.446;2023-04-24T14:28:04;5.38;;;3.30;;
39454;SDS011;25155;41.890;23.446;2023-04-24T14:30:32;5.78;;;2.95;;
39454;SDS011;25155;41.890;23.446;2023-04-24T14:33:00;4.93;;;2.95;;
39454;SDS011;25155;41.890;23.446;2023-04-24T14:35:27;4.57;;;3.05;;
39454;SDS011;25155;41.890;23.446;2023-04-24T14:37:56;7.28;;;3.00;;
39454;SDS011;25155;41.890;23.446;2023-04-24T14:40:23;4.47;;;2.70;;
39454;SDS011;25155;41.890;23.446;2023-04-24T14:42:51;4.30;;;2.83;;
39454;SDS011;25155;41.890;23.446;2023-04-24T14:45:18;6.20;;;2.97;;